createdAt,value
2023-04-10T00:02:04.467Z,50.33
2023-04-10T00:04:32.571Z,50.42
2023-04-10T00:07:01.926Z,48.30
2023-04-10T00:09:29.962Z,46.67
2023-04-10T00:11:57.969Z,46.60
2023-04-10T00:14:25.862Z,46.20
2023-04-10T00:16:53.874Z,47.00
2023-04-10T00:19:21.812Z,46.40
2023-04-10T00:21:49.793Z,44.88
2023-04-10T00:24:19.365Z,46.92
2023-04-10T00:26:47.264Z,46.28
2023-04-10T00:29:15.360Z,45.97
2023-04-10T00:31:43.323Z,45.50
2023-04-10T00:34:11.791Z,46.45
2023-04-10T00:36:39.680Z,46.20
2023-04-10T00:39:08.675Z,45.50
2023-04-10T00:41:38.107Z,49.47
2023-04-10T00:44:06.021Z,46.30
2023-04-10T00:46:35.303Z,46.95
2023-04-10T00:49:03.384Z,45.33
2023-04-10T00:51:31.861Z,45.78
2023-04-10T00:54:02.278Z,46.10
2023-04-10T00:56:32.059Z,46.00
2023-04-10T00:59:04.083Z,46.95
2023-04-10T01:01:33.324Z,45.80
2023-04-10T01:04:01.601Z,50.10
2023-04-10T01:06:43.552Z,49.30
2023-04-10T01:09:18.481Z,48.08
2023-04-10T01:11:52.493Z,46.70
2023-04-10T01:14:31.970Z,50.00
2023-04-10T01:17:06.318Z,47.20
2023-04-10T01:20:00.769Z,48.00
2023-04-10T01:22:34.040Z,54.90
2023-04-10T01:25:17.675Z,47.30
2023-04-10T01:27:53.880Z,46.28
2023-04-10T01:30:25.630Z,46.90
2023-04-10T01:32:58.003Z,47.65
2023-04-10T01:35:26.967Z,46.45
2023-04-10T01:37:56.054Z,46.83
2023-04-10T01:40:27.638Z,45.67
2023-04-10T01:42:58.748Z,47.35
2023-04-10T01:45:29.853Z,46.70
2023-04-10T01:47:58.327Z,47.22
2023-04-10T01:50:28.614Z,47.20
2023-04-10T01:52:58.439Z,47.75
2023-04-10T01:55:26.808Z,47.40
2023-04-10T01:57:55.798Z,49.33
2023-04-10T02:00:23.761Z,47.85
2023-04-10T02:02:53.506Z,46.60
2023-04-10T02:05:23.127Z,45.80
2023-04-10T02:07:57.423Z,46.60
2023-04-10T02:10:31.417Z,46.60
2023-04-10T02:13:04.225Z,47.30
2023-04-10T02:15:33.762Z,49.40
2023-04-10T02:18:06.430Z,47.30
2023-04-10T02:20:34.670Z,46.85
2023-04-10T02:23:04.090Z,46.67
2023-04-10T02:25:33.070Z,47.42
2023-04-10T02:28:05.444Z,56.00
2023-04-10T02:30:33.643Z,46.80
2023-04-10T02:33:03.100Z,54.13
2023-04-10T02:35:31.013Z,47.08
2023-04-10T02:37:58.944Z,50.90
2023-04-10T02:40:26.876Z,44.80
2023-04-10T02:42:54.793Z,46.38
2023-04-10T02:45:22.776Z,49.60
2023-04-10T02:47:50.699Z,50.90
2023-04-10T02:50:20.129Z,46.00
2023-04-10T02:52:48.289Z,55.70
2023-04-10T02:55:16.473Z,45.92
2023-04-10T02:57:44.376Z,45.45
2023-04-10T03:00:13.299Z,49.47
2023-04-10T03:02:41.280Z,53.90
2023-04-10T03:05:10.067Z,47.30
2023-04-10T03:07:39.378Z,46.20
2023-04-10T03:10:08.390Z,54.22
2023-04-10T03:12:36.318Z,67.40
2023-04-10T03:15:04.397Z,47.70
2023-04-10T03:17:32.352Z,52.83
2023-04-10T03:20:00.322Z,46.60
2023-04-10T03:22:31.700Z,49.17
2023-04-10T03:25:01.473Z,46.85
2023-04-10T03:27:32.104Z,51.72
2023-04-10T03:30:00.740Z,46.88
2023-04-10T03:32:31.151Z,52.55
2023-04-10T03:34:59.507Z,46.85
2023-04-10T03:37:28.405Z,45.95
2023-04-10T03:39:56.541Z,46.60
2023-04-10T03:42:26.027Z,52.17
2023-04-10T03:44:54.027Z,49.97
2023-04-10T03:47:21.990Z,46.47
2023-04-10T03:49:49.998Z,46.60
2023-04-10T03:52:17.913Z,47.38
2023-04-10T03:54:45.971Z,47.30
2023-04-10T03:57:13.920Z,47.03
2023-04-10T03:59:43.281Z,47.95
2023-04-10T04:02:11.396Z,56.50
2023-04-10T04:04:39.808Z,47.27
2023-04-10T04:07:08.818Z,54.58
2023-04-10T04:09:36.895Z,46.30
2023-04-10T04:12:04.981Z,49.38
2023-04-10T04:14:32.871Z,46.15
2023-04-10T04:17:02.344Z,46.47
2023-04-10T04:19:30.406Z,46.30
2023-04-10T04:22:00.375Z,47.92
2023-04-10T04:24:28.354Z,47.88
2023-04-10T04:26:57.169Z,46.90
2023-04-10T04:29:25.153Z,46.80
2023-04-10T04:31:53.342Z,46.15
2023-04-10T04:34:22.816Z,46.55
2023-04-10T04:36:50.746Z,46.95
2023-04-10T04:39:18.693Z,45.70
2023-04-10T04:41:46.600Z,46.90
2023-04-10T04:44:14.501Z,46.90
2023-04-10T04:46:44.535Z,46.80
2023-04-10T04:49:12.802Z,47.27
2023-04-10T04:51:42.072Z,46.08
2023-04-10T04:54:09.969Z,45.50
2023-04-10T04:56:37.921Z,47.10
2023-04-10T04:59:05.886Z,47.03
2023-04-10T05:01:33.903Z,46.60
2023-04-10T05:04:01.964Z,46.13
2023-04-10T05:06:29.958Z,46.60
2023-04-10T05:08:59.143Z,45.42
2023-04-10T05:11:27.017Z,46.42
2023-04-10T05:13:54.946Z,46.20
2023-04-10T05:16:22.937Z,46.50
2023-04-10T05:18:50.921Z,46.28
2023-04-10T05:21:18.914Z,46.10
2023-04-10T05:23:46.811Z,46.42
2023-04-10T05:26:16.195Z,51.80
2023-04-10T05:28:44.059Z,47.22
2023-04-10T05:31:11.951Z,54.20
2023-04-10T05:33:39.933Z,46.33
2023-04-10T05:36:08.529Z,45.80
2023-04-10T05:38:36.619Z,46.80
2023-04-10T05:41:04.482Z,47.00
2023-04-10T05:43:33.781Z,55.00
2023-04-10T05:46:01.902Z,46.42
2023-04-10T05:48:29.904Z,47.22
2023-04-10T05:50:57.815Z,46.53
2023-04-10T05:53:31.117Z,46.90
2023-04-10T05:55:59.404Z,46.40
2023-04-10T05:58:27.884Z,48.85
2023-04-10T06:00:58.533Z,47.45
2023-04-10T06:03:29.332Z,49.30
2023-04-10T06:05:57.645Z,47.30
2023-04-10T06:08:25.618Z,56.67
2023-04-10T06:10:53.545Z,46.80
2023-04-10T06:13:21.598Z,47.00
2023-04-10T06:15:49.506Z,46.40
2023-04-10T06:18:18.858Z,46.70
2023-04-10T06:20:46.860Z,62.92
2023-04-10T06:23:15.890Z,47.10
2023-04-10T06:25:44.730Z,47.03
2023-04-10T06:28:12.660Z,49.40
2023-04-10T06:30:40.716Z,48.72
2023-04-10T06:33:08.653Z,48.72
2023-04-10T06:35:38.566Z,48.05
2023-04-10T06:38:06.763Z,47.85
2023-04-10T06:40:35.028Z,47.75
2023-04-10T06:43:02.927Z,54.10
2023-04-10T06:45:31.148Z,71.45
2023-04-10T06:47:59.121Z,70.28
2023-04-10T06:50:27.097Z,59.30
2023-04-10T06:52:59.842Z,61.00
2023-04-10T06:55:27.974Z,71.72
2023-04-10T06:57:56.525Z,49.38
2023-04-10T07:00:25.061Z,78.70
2023-04-10T07:02:53.160Z,60.88
2023-04-10T07:05:21.314Z,60.80
2023-04-10T07:07:50.634Z,71.50
2023-04-10T07:10:20.058Z,82.70
2023-04-10T07:12:48.037Z,83.35
2023-04-10T07:15:16.242Z,71.97
2023-04-10T07:17:44.481Z,56.50
2023-04-10T07:20:13.160Z,61.80
2023-04-10T07:22:41.123Z,51.55
2023-04-10T07:25:10.022Z,68.17
2023-04-10T07:27:39.337Z,70.65
2023-04-10T07:30:08.468Z,64.25
2023-04-10T07:32:37.488Z,73.93
2023-04-10T07:35:06.158Z,61.42
2023-04-10T07:37:34.138Z,56.28
2023-04-10T07:40:02.479Z,56.80
2023-04-10T07:42:30.991Z,62.20
2023-04-10T07:45:00.323Z,76.33
2023-04-10T07:47:28.276Z,61.92
2023-04-10T07:49:56.352Z,50.60
2023-04-10T07:52:24.206Z,61.40
2023-04-10T07:54:52.300Z,60.70
2023-04-10T07:57:20.333Z,49.20
2023-04-10T07:59:48.202Z,49.03
2023-04-10T08:02:17.532Z,72.83
2023-04-10T08:04:46.003Z,53.50
2023-04-10T08:07:14.054Z,51.28
2023-04-10T08:09:41.940Z,49.00
2023-04-10T08:12:09.844Z,57.88
2023-04-10T08:14:37.722Z,49.85
2023-04-10T08:17:05.656Z,49.70
2023-04-10T08:19:36.029Z,51.47
2023-04-10T08:22:04.305Z,59.67
2023-04-10T08:24:32.171Z,57.70
2023-04-10T08:27:00.076Z,56.77
2023-04-10T08:29:28.021Z,50.28
2023-04-10T08:31:56.484Z,50.70
2023-04-10T08:34:24.453Z,57.28
2023-04-10T08:36:53.764Z,50.10
2023-04-10T08:39:21.723Z,57.03
2023-04-10T08:41:49.851Z,54.33
2023-04-10T08:44:17.953Z,50.58
2023-04-10T08:46:46.437Z,58.00
2023-04-10T08:49:24.303Z,59.10
2023-04-10T08:51:58.649Z,73.72
2023-04-10T08:54:29.655Z,80.97
2023-04-10T08:56:58.528Z,56.95
2023-04-10T08:59:26.611Z,55.70
2023-04-10T09:01:55.080Z,60.20
2023-04-10T09:04:23.242Z,67.95
2023-04-10T09:06:51.260Z,64.90
2023-04-10T09:09:20.717Z,70.22
2023-04-10T09:12:01.251Z,54.42
2023-04-10T09:14:30.566Z,61.20
2023-04-10T09:17:17.144Z,55.75
2023-04-10T09:19:46.230Z,71.03
2023-04-10T09:22:14.514Z,77.40
2023-04-10T09:24:45.229Z,55.40
2023-04-10T09:27:29.433Z,52.15
2023-04-10T09:29:57.291Z,67.32
2023-04-10T09:32:38.654Z,64.05
2023-04-10T09:35:08.491Z,73.30
2023-04-10T09:37:37.288Z,68.25
2023-04-10T09:40:20.198Z,68.00
2023-04-10T09:42:48.090Z,65.40
2023-04-10T09:45:19.753Z,68.10
2023-04-10T09:48:02.721Z,57.72
2023-04-10T09:50:38.859Z,59.15
2023-04-10T09:53:07.885Z,55.40
2023-04-10T09:55:37.787Z,55.33
2023-04-10T09:58:06.389Z,57.63
2023-04-10T10:00:39.812Z,66.28
2023-04-10T10:03:10.416Z,70.85
2023-04-10T10:05:43.554Z,58.97
2023-04-10T10:08:12.652Z,71.97
2023-04-10T10:10:47.800Z,57.70
2023-04-10T10:13:19.002Z,51.80
2023-04-10T10:15:52.995Z,56.88
2023-04-10T10:18:26.772Z,54.00
2023-04-10T10:20:54.935Z,66.28
2023-04-10T10:23:23.272Z,79.28
2023-04-10T10:25:53.547Z,64.10
2023-04-10T10:28:22.450Z,61.03
2023-04-10T10:30:51.299Z,60.37
2023-04-10T10:33:19.455Z,76.38
2023-04-10T10:35:47.808Z,67.28
2023-04-10T10:38:16.580Z,54.05
2023-04-10T10:40:52.769Z,53.67
2023-04-10T10:43:27.800Z,58.25
2023-04-10T10:46:00.959Z,67.38
2023-04-10T10:48:29.266Z,52.83
2023-04-10T10:50:59.006Z,65.28
2023-04-10T10:53:34.993Z,58.83
2023-04-10T10:56:37.031Z,80.80
2023-04-10T10:59:06.296Z,58.70
2023-04-10T11:01:34.269Z,60.90
2023-04-10T11:04:02.428Z,66.80
2023-04-10T11:06:53.077Z,57.85
2023-04-10T11:09:46.888Z,58.88
2023-04-10T11:12:14.768Z,65.00
2023-04-10T11:14:46.058Z,65.55
2023-04-10T11:17:13.896Z,57.30
2023-04-10T11:20:07.820Z,66.27
2023-04-10T11:23:09.000Z,62.05
2023-04-10T11:25:53.123Z,69.07
2023-04-10T11:28:40.330Z,64.38
2023-04-10T11:31:22.208Z,65.45
2023-04-10T11:34:01.440Z,79.97
2023-04-10T11:36:29.426Z,74.93
2023-04-10T11:38:59.104Z,59.33
2023-04-10T11:41:31.792Z,76.40
2023-04-10T11:44:00.359Z,79.90
2023-04-10T11:46:30.340Z,60.03
2023-04-10T11:49:00.622Z,60.65
2023-04-10T11:51:29.236Z,61.40
2023-04-10T11:54:08.132Z,63.60
2023-04-10T11:56:36.393Z,54.67
2023-04-10T11:59:07.372Z,63.30
2023-04-10T12:01:37.416Z,53.55
2023-04-10T12:04:07.860Z,80.65
2023-04-10T12:06:36.233Z,55.80
2023-04-10T12:09:15.631Z,76.00
2023-04-10T12:11:50.650Z,78.20
2023-04-10T12:14:18.960Z,74.38
2023-04-10T12:16:48.713Z,72.88
2023-04-10T12:19:17.884Z,68.35
2023-04-10T12:21:47.097Z,66.75
2023-04-10T12:24:34.957Z,67.43
2023-04-10T12:27:04.228Z,65.10
2023-04-10T12:29:32.106Z,55.60
2023-04-10T12:32:07.869Z,72.17
2023-04-10T12:34:35.775Z,83.07
2023-04-10T12:37:04.495Z,70.60
2023-04-10T12:39:32.316Z,61.03
2023-04-10T12:42:14.752Z,65.60
2023-04-10T12:44:53.017Z,60.83
2023-04-10T12:47:21.080Z,63.15
2023-04-10T12:50:13.996Z,61.10
2023-04-10T12:52:44.290Z,69.55
2023-04-10T12:55:15.418Z,65.63
2023-04-10T12:57:46.132Z,53.90
2023-04-10T13:00:18.368Z,65.65
2023-04-10T13:02:47.286Z,69.03
2023-04-10T13:05:15.666Z,62.50
2023-04-10T13:07:43.627Z,70.93
2023-04-10T13:10:11.649Z,61.80
2023-04-10T13:12:40.555Z,62.85
2023-04-10T13:15:10.767Z,64.32
2023-04-10T13:17:38.711Z,95.47
2023-04-10T13:20:07.842Z,56.50
2023-04-10T13:22:35.808Z,91.43
2023-04-10T13:25:04.294Z,68.07
2023-04-10T13:27:32.395Z,74.00
2023-04-10T13:30:00.266Z,68.40
2023-04-10T13:32:29.604Z,84.07
2023-04-10T13:34:57.511Z,69.82
2023-04-10T13:37:26.483Z,54.80
2023-04-10T13:39:54.777Z,87.18
2023-04-10T13:42:22.637Z,91.47
2023-04-10T13:44:50.511Z,82.63
2023-04-10T13:47:18.406Z,68.95
2023-04-10T13:49:47.577Z,70.22
2023-04-10T13:52:15.368Z,88.70
2023-04-10T13:54:43.179Z,71.53
2023-04-10T13:57:11.053Z,58.25
2023-04-10T13:59:38.885Z,68.35
2023-04-10T14:02:06.909Z,99.43
2023-04-10T14:04:34.758Z,86.78
2023-04-10T14:07:03.969Z,66.90
2023-04-10T14:09:31.892Z,72.28
2023-04-10T14:11:59.758Z,77.63
2023-04-10T14:14:27.582Z,55.70
2023-04-10T14:16:55.434Z,63.53
2023-04-10T14:19:23.407Z,60.90
2023-04-10T14:21:51.189Z,64.47
2023-04-10T14:24:21.329Z,66.07
2023-04-10T14:26:49.180Z,58.63
2023-04-10T14:29:20.193Z,58.77
2023-04-10T14:31:57.590Z,79.83
2023-04-10T14:34:26.303Z,61.00
2023-04-10T14:36:55.914Z,57.67
2023-04-10T14:39:26.342Z,65.25
2023-04-10T14:41:54.287Z,66.50
2023-04-10T14:44:22.140Z,60.30
2023-04-10T14:46:50.069Z,56.20
2023-04-10T14:49:17.932Z,78.82
2023-04-10T14:51:46.116Z,74.60
2023-04-10T14:54:13.922Z,58.92
2023-04-10T14:56:43.172Z,87.35
2023-04-10T14:59:11.465Z,72.57
2023-04-10T15:01:39.388Z,66.72
2023-04-10T15:04:07.529Z,73.50
2023-04-10T15:06:35.610Z,61.03
2023-04-10T15:09:04.503Z,57.92
2023-04-10T15:11:32.385Z,76.90
2023-04-10T15:14:02.229Z,64.78
2023-04-10T15:16:30.645Z,88.53
2023-04-10T15:18:58.508Z,64.17
2023-04-10T15:21:27.274Z,89.03
2023-04-10T15:23:55.429Z,106.23
2023-04-10T15:26:23.691Z,81.57
2023-04-10T15:28:51.545Z,59.60
2023-04-10T15:31:23.369Z,65.10
2023-04-10T15:33:52.884Z,70.70
2023-04-10T15:36:21.003Z,79.00
2023-04-10T15:38:50.210Z,67.00
2023-04-10T15:41:18.516Z,60.13
2023-04-10T15:43:46.396Z,77.85
2023-04-10T15:46:15.765Z,70.60
2023-04-10T15:48:45.873Z,72.88
2023-04-10T15:51:13.748Z,83.75
2023-04-10T15:53:41.661Z,78.35
2023-04-10T15:56:09.833Z,66.20
2023-04-10T15:58:37.665Z,59.33
2023-04-10T16:01:06.210Z,66.00
2023-04-10T16:03:34.248Z,74.67
2023-04-10T16:06:03.626Z,77.80
2023-04-10T16:08:31.542Z,61.77
2023-04-10T16:10:59.433Z,49.87
2023-04-10T16:13:27.306Z,80.40
2023-04-10T16:15:55.154Z,51.60
2023-04-10T16:18:23.102Z,64.22
2023-04-10T16:20:50.999Z,59.40
2023-04-10T16:23:20.193Z,65.43
2023-04-10T16:25:48.039Z,54.90
2023-04-10T16:28:15.992Z,67.63
2023-04-10T16:30:43.852Z,65.77
2023-04-10T16:33:11.814Z,58.47
2023-04-10T16:35:39.916Z,57.78
2023-04-10T16:38:07.905Z,68.10
2023-04-10T16:40:37.481Z,62.50
2023-04-10T16:43:05.364Z,70.85
2023-04-10T16:45:33.161Z,65.45
2023-04-10T16:48:01.059Z,105.72
2023-04-10T16:50:28.929Z,77.10
2023-04-10T16:52:56.770Z,72.53
2023-04-10T16:55:24.573Z,60.08
2023-04-10T16:57:53.749Z,67.63
2023-04-10T17:00:21.781Z,61.75
2023-04-10T17:02:49.829Z,64.38
2023-04-10T17:05:17.735Z,61.03
2023-04-10T17:07:45.596Z,60.10
2023-04-10T17:10:13.437Z,57.63
2023-04-10T17:12:42.366Z,65.80
2023-04-10T17:15:12.619Z,78.23
2023-04-10T17:17:40.648Z,58.27
2023-04-10T17:20:09.959Z,49.13
2023-04-10T17:22:38.789Z,76.63
2023-04-10T17:25:08.375Z,49.13
2023-04-10T17:27:39.048Z,59.80
2023-04-10T17:30:15.043Z,80.17
2023-04-10T17:32:43.401Z,54.97
2023-04-10T17:35:11.468Z,55.90
2023-04-10T17:37:39.320Z,48.20
2023-04-10T17:40:08.585Z,53.70
2023-04-10T17:42:36.429Z,48.33
2023-04-10T17:45:04.549Z,48.83
2023-04-10T17:47:33.903Z,58.97
2023-04-10T17:50:01.830Z,48.10
2023-04-10T17:52:29.854Z,50.47
2023-04-10T17:54:57.826Z,71.57
2023-04-10T17:57:26.188Z,88.23
2023-04-10T17:59:55.299Z,63.83
2023-04-10T18:02:23.289Z,72.73
2023-04-10T18:04:52.527Z,67.60
2023-04-10T18:07:20.450Z,48.13
2023-04-10T18:09:48.282Z,47.23
2023-04-10T18:12:16.129Z,46.90
2023-04-10T18:14:44.801Z,50.70
2023-04-10T18:17:12.711Z,46.60
2023-04-10T18:19:40.534Z,46.97
2023-04-10T18:22:09.870Z,54.27
2023-04-10T18:24:37.736Z,52.00
2023-04-10T18:27:06.276Z,46.70
2023-04-10T18:29:34.165Z,47.17
2023-04-10T18:32:02.005Z,57.33
2023-04-10T18:34:29.917Z,56.13
2023-04-10T18:36:59.028Z,45.93
2023-04-10T18:39:28.381Z,48.17
2023-04-10T18:41:57.268Z,68.47
2023-04-10T18:44:25.205Z,47.57
2023-04-10T18:47:01.121Z,62.97
2023-04-10T18:49:31.791Z,72.00
2023-04-10T18:51:59.684Z,47.83
2023-04-10T18:54:29.704Z,49.73
2023-04-10T18:56:57.585Z,47.60
2023-04-10T18:59:25.644Z,51.80
2023-04-10T19:01:53.657Z,49.47
2023-04-10T19:04:21.847Z,56.53
2023-04-10T19:06:49.804Z,53.47
2023-04-10T19:09:17.685Z,46.90
2023-04-10T19:11:47.133Z,46.53
2023-04-10T19:14:15.011Z,48.37
2023-04-10T19:16:42.888Z,74.23
2023-04-10T19:19:10.770Z,45.47
2023-04-10T19:21:38.707Z,58.70
2023-04-10T19:24:06.920Z,48.80
2023-04-10T19:26:34.890Z,45.23
2023-04-10T19:29:04.237Z,45.13
2023-04-10T19:31:32.842Z,63.27
2023-04-10T19:34:02.424Z,47.57
2023-04-10T19:36:32.112Z,43.97
2023-04-10T19:39:00.261Z,44.90
2023-04-10T19:41:28.226Z,44.43
2023-04-10T19:43:56.398Z,44.37
2023-04-10T19:46:25.881Z,44.53
2023-04-10T19:48:54.511Z,44.03
2023-04-10T19:51:22.412Z,50.03
2023-04-10T19:53:50.265Z,58.37
2023-04-10T19:56:18.143Z,46.53
2023-04-10T19:58:56.208Z,52.60
2023-04-10T20:01:25.713Z,43.90
2023-04-10T20:03:53.720Z,61.37
2023-04-10T20:06:22.548Z,52.37
2023-04-10T20:08:50.540Z,47.20
2023-04-10T20:11:18.482Z,42.43
2023-04-10T20:13:46.337Z,52.40
2023-04-10T20:16:14.297Z,78.13
2023-04-10T20:18:43.566Z,53.23
2023-04-10T20:21:11.465Z,84.73
2023-04-10T20:23:39.361Z,62.57
2023-04-10T20:26:07.382Z,47.33
2023-04-10T20:28:35.365Z,42.10
2023-04-10T20:31:03.337Z,42.17
2023-04-10T20:33:31.302Z,48.13
2023-04-10T20:36:00.880Z,49.17
2023-04-10T20:38:28.796Z,42.47
2023-04-10T20:40:56.831Z,40.90
2023-04-10T20:43:26.371Z,40.20
2023-04-10T20:45:54.527Z,42.23
2023-04-10T20:48:22.485Z,44.27
2023-04-10T20:50:50.689Z,48.93
2023-04-10T20:53:20.008Z,42.20
2023-04-10T20:55:47.917Z,49.83
2023-04-10T20:58:15.829Z,42.23
2023-04-10T21:00:43.785Z,43.07
2023-04-10T21:03:11.889Z,43.70
2023-04-10T21:05:41.332Z,47.13
2023-04-10T21:08:09.256Z,43.70
2023-04-10T21:10:43.894Z,46.30
2023-04-10T21:13:13.060Z,44.37
2023-04-10T21:15:41.181Z,50.60
2023-04-10T21:18:09.079Z,50.40
2023-04-10T21:20:36.984Z,57.87
2023-04-10T21:23:05.007Z,46.23
2023-04-10T21:25:33.929Z,48.07
2023-04-10T21:28:03.439Z,47.10
2023-04-10T21:30:31.342Z,43.80
2023-04-10T21:32:59.319Z,50.50
2023-04-10T21:35:27.818Z,46.83
2023-04-10T21:37:59.398Z,45.93
2023-04-10T21:40:33.860Z,45.73
2023-04-10T21:43:03.443Z,45.17
2023-04-10T21:45:31.956Z,46.90
2023-04-10T21:48:00.734Z,50.37
2023-04-10T21:50:28.766Z,45.97
2023-04-10T21:52:56.779Z,44.03
2023-04-10T21:55:24.825Z,53.83
2023-04-10T21:57:52.800Z,51.47
2023-04-10T22:00:23.165Z,44.63
2023-04-10T22:02:52.205Z,46.53
2023-04-10T22:05:20.471Z,44.67
2023-04-10T22:07:48.667Z,43.00
2023-04-10T22:10:16.748Z,42.60
2023-04-10T22:12:46.005Z,53.53
2023-04-10T22:15:15.879Z,44.80
2023-04-10T22:17:45.401Z,48.83
2023-04-10T22:20:13.717Z,44.60
2023-04-10T22:22:41.623Z,46.83
2023-04-10T22:25:09.820Z,52.83
2023-04-10T22:27:37.756Z,51.65
2023-04-10T22:30:06.583Z,50.40
2023-04-10T22:32:34.759Z,55.50
2023-04-10T22:35:04.022Z,55.42
2023-04-10T22:37:31.932Z,57.78
2023-04-10T22:40:00.490Z,68.70
2023-04-10T22:42:31.212Z,58.53
2023-04-10T22:44:59.919Z,74.00
2023-04-10T22:47:27.975Z,48.75
2023-04-10T22:49:55.867Z,49.85
2023-04-10T22:52:25.282Z,54.92
2023-04-10T22:54:53.220Z,50.85
2023-04-10T22:57:21.148Z,48.00
2023-04-10T22:59:49.619Z,50.10
2023-04-10T23:02:17.823Z,52.25
2023-04-10T23:04:45.844Z,50.90
2023-04-10T23:07:13.770Z,49.22
2023-04-10T23:09:43.250Z,51.73
2023-04-10T23:12:11.144Z,49.70
2023-04-10T23:14:39.013Z,48.70
2023-04-10T23:17:06.920Z,50.88
2023-04-10T23:19:34.895Z,46.78
2023-04-10T23:22:03.055Z,54.22
2023-04-10T23:24:30.989Z,60.22
2023-04-10T23:27:00.370Z,49.33
2023-04-10T23:29:28.365Z,54.67
2023-04-10T23:31:56.315Z,49.80
2023-04-10T23:34:26.483Z,47.28
2023-04-10T23:36:54.544Z,48.65
2023-04-10T23:39:22.537Z,48.13
2023-04-10T23:41:50.487Z,49.33
2023-04-10T23:44:19.918Z,50.45
2023-04-10T23:46:49.462Z,48.90
2023-04-10T23:49:17.872Z,46.80
2023-04-10T23:51:46.202Z,49.60
2023-04-10T23:54:14.249Z,105.55
2023-04-10T23:56:42.183Z,63.47
2023-04-10T23:59:10.036Z,50.97
